sensor_id;sensor_type;location;lat;lon;timestamp;pressure;altitude;pressure_sealevel;temperature;humidity
63194;BME280;49289;51.670;5.624;2023-05-29T00:00:13;102429.21;;;20.90;49.39
63194;BME280;49289;51.670;5.624;2023-05-29T00:02:00;102427.36;;;20.50;49.86
63194;BME280;49289;51.670;5.624;2023-05-29T00:03:47;102407.13;;;20.48;49.47
63194;BME280;49289;51.670;5.624;2023-05-29T00:05:34;102413.66;;;20.49;49.57
63194;BME280;49289;51.670;5.624;2023-05-29T00:07:21;102415.11;;;20.83;48.78
63194;BME280;49289;51.670;5.624;2023-05-29T00:09:09;102440.20;;;21.17;48.48
63194;BME280;49289;51.670;5.624;2023-05-29T00:10:57;102435.10;;;20.85;48.23
63194;BME280;49289;51.670;5.624;2023-05-29T00:12:45;102443.80;;;20.76;48.55
63194;BME280;49289;51.670;5.624;2023-05-29T00:14:33;102446.58;;;21.01;48.15
63194;BME280;49289;51.670;5.624;2023-05-29T00:16:22;102448.55;;;20.54;48.12
63194;BME280;49289;51.670;5.624;2023-05-29T00:18:09;102448.37;;;20.29;49.32
63194;BME280;49289;51.670;5.624;2023-05-29T00:19:56;102454.23;;;20.73;48.77
63194;BME280;49289;51.670;5.624;2023-05-29T00:21:43;102428.84;;;20.72;48.32
63194;BME280;49289;51.670;5.624;2023-05-29T00:23:31;102426.34;;;20.56;48.00
63194;BME280;49289;51.670;5.624;2023-05-29T00:25:20;102431.98;;;20.67;48.14
63194;BME280;49289;51.670;5.624;2023-05-29T00:27:08;102431.42;;;20.46;47.53
63194;BME280;49289;51.670;5.624;2023-05-29T00:28:55;102427.53;;;20.23;47.43
63194;BME280;49289;51.670;5.624;2023-05-29T00:30:42;102448.40;;;20.73;47.56
63194;BME280;49289;51.670;5.624;2023-05-29T00:32:29;102423.77;;;20.39;46.85
63194;BME280;49289;51.670;5.624;2023-05-29T00:34:16;102424.42;;;20.20;47.31
63194;BME280;49289;51.670;5.624;2023-05-29T00:36:03;102434.31;;;20.51;47.03
63194;BME280;49289;51.670;5.624;2023-05-29T00:37:50;102452.06;;;20.33;47.14
63194;BME280;49289;51.670;5.624;2023-05-29T00:39:37;102434.12;;;20.26;47.01
63194;BME280;49289;51.670;5.624;2023-05-29T00:41:25;102467.63;;;20.02;47.23
63194;BME280;49289;51.670;5.624;2023-05-29T00:43:12;102437.17;;;19.96;47.16
63194;BME280;49289;51.670;5.624;2023-05-29T00:44:59;102463.38;;;19.78;47.54
63194;BME280;49289;51.670;5.624;2023-05-29T00:46:46;102463.07;;;20.06;47.42
63194;BME280;49289;51.670;5.624;2023-05-29T00:48:33;102437.10;;;19.73;47.52
63194;BME280;49289;51.670;5.624;2023-05-29T00:50:21;102460.25;;;20.13;47.24
63194;BME280;49289;51.670;5.624;2023-05-29T00:52:08;102465.73;;;20.24;47.03
63194;BME280;49289;51.670;5.624;2023-05-29T00:53:55;102434.99;;;20.19;47.01
63194;BME280;49289;51.670;5.624;2023-05-29T00:55:42;102462.84;;;20.25;46.80
63194;BME280;49289;51.670;5.624;2023-05-29T00:57:29;102469.55;;;20.26;46.28
63194;BME280;49289;51.670;5.624;2023-05-29T00:59:16;102449.73;;;19.95;47.10
63194;BME280;49289;51.670;5.624;2023-05-29T01:01:03;102478.05;;;20.05;46.94
63194;BME280;49289;51.670;5.624;2023-05-29T01:02:50;102479.94;;;20.17;46.62
63194;BME280;49289;51.670;5.624;2023-05-29T01:04:37;102461.30;;;19.88;46.71
63194;BME280;49289;51.670;5.624;2023-05-29T01:06:24;102486.84;;;19.50;46.75
63194;BME280;49289;51.670;5.624;2023-05-29T01:08:11;102293.05;;;18.23;47.77
63194;BME280;49289;51.670;5.624;2023-05-29T01:09:58;102470.31;;;19.72;47.77
63194;BME280;49289;51.670;5.624;2023-05-29T01:11:49;102490.33;;;19.70;47.35
63194;BME280;49289;51.670;5.624;2023-05-29T01:13:34;102491.22;;;19.05;47.25
63194;BME280;49289;51.670;5.624;2023-05-29T01:15:35;102487.95;;;19.45;47.63
63194;BME280;49289;51.670;5.624;2023-05-29T01:17:32;102471.38;;;19.04;47.75
63194;BME280;49289;51.670;5.624;2023-05-29T01:19:14;102492.20;;;19.72;47.84
63194;BME280;49289;51.670;5.624;2023-05-29T01:21:03;102484.18;;;19.40;47.32
63194;BME280;49289;51.670;5.624;2023-05-29T01:24:58;102494.90;;;19.73;47.36
63194;BME280;49289;51.670;5.624;2023-05-29T01:26:58;102489.14;;;19.95;47.25
63194;BME280;49289;51.670;5.624;2023-05-29T01:28:47;102488.42;;;19.84;46.48
63194;BME280;49289;51.670;5.624;2023-05-29T01:30:33;102492.57;;;19.52;46.79
63194;BME280;49289;51.670;5.624;2023-05-29T01:32:20;102468.39;;;19.75;46.87
63194;BME280;49289;51.670;5.624;2023-05-29T01:34:07;102495.41;;;19.67;46.75
63194;BME280;49289;51.670;5.624;2023-05-29T01:35:54;102496.77;;;19.71;46.65
63194;BME280;49289;51.670;5.624;2023-05-29T01:37:41;102484.62;;;19.80;46.48
63194;BME280;49289;51.670;5.624;2023-05-29T01:39:28;102466.22;;;19.63;46.70
63194;BME280;49289;51.670;5.624;2023-05-29T01:41:15;102493.27;;;19.27;47.29
63194;BME280;49289;51.670;5.624;2023-05-29T01:43:02;102471.06;;;19.39;46.90
63194;BME280;49289;51.670;5.624;2023-05-29T01:44:49;102469.59;;;19.34;46.99
63194;BME280;49289;51.670;5.624;2023-05-29T01:46:36;102492.47;;;19.64;46.94
63194;BME280;49289;51.670;5.624;2023-05-29T01:48:23;102490.18;;;19.27;46.96
63194;BME280;49289;51.670;5.624;2023-05-29T01:50:11;102491.13;;;19.49;46.89
63194;BME280;49289;51.670;5.624;2023-05-29T01:51:59;102492.25;;;19.17;47.66
63194;BME280;49289;51.670;5.624;2023-05-29T01:53:46;102489.94;;;19.33;47.13
63194;BME280;49289;51.670;5.624;2023-05-29T01:55:34;102491.64;;;19.21;47.31
63194;BME280;49289;51.670;5.624;2023-05-29T01:57:22;102490.48;;;19.21;47.83
63194;BME280;49289;51.670;5.624;2023-05-29T01:59:10;102486.42;;;19.24;47.45
63194;BME280;49289;51.670;5.624;2023-05-29T02:00:59;102490.14;;;19.42;47.33
63194;BME280;49289;51.670;5.624;2023-05-29T02:02:48;102491.62;;;19.51;47.50
63194;BME280;49289;51.670;5.624;2023-05-29T02:04:35;102488.77;;;19.30;47.48
63194;BME280;49289;51.670;5.624;2023-05-29T02:06:22;102491.23;;;19.60;47.17
63194;BME280;49289;51.670;5.624;2023-05-29T02:08:09;102467.89;;;19.38;46.88
63194;BME280;49289;51.670;5.624;2023-05-29T02:09:56;102484.45;;;19.33;46.90
63194;BME280;49289;51.670;5.624;2023-05-29T02:11:43;102467.98;;;18.97;47.54
63194;BME280;49289;51.670;5.624;2023-05-29T02:13:31;102470.34;;;19.16;47.91
63194;BME280;49289;51.670;5.624;2023-05-29T02:15:18;102486.81;;;19.44;47.46
63194;BME280;49289;51.670;5.624;2023-05-29T02:17:06;102483.66;;;19.34;47.16
63194;BME280;49289;51.670;5.624;2023-05-29T02:18:53;102483.16;;;19.23;47.26
63194;BME280;49289;51.670;5.624;2023-05-29T02:20:41;102485.80;;;19.13;47.51
63194;BME280;49289;51.670;5.624;2023-05-29T02:22:29;102466.92;;;18.48;47.78
63194;BME280;49289;51.670;5.624;2023-05-29T02:24:18;102486.94;;;18.52;48.81
63194;BME280;49289;51.670;5.624;2023-05-29T02:26:06;102490.28;;;18.18;49.18
63194;BME280;49289;51.670;5.624;2023-05-29T02:27:53;102495.85;;;18.32;49.46
63194;BME280;49289;51.670;5.624;2023-05-29T02:29:41;102500.58;;;18.06;49.81
63194;BME280;49289;51.670;5.624;2023-05-29T02:31:28;102496.44;;;18.43;49.44
63194;BME280;49289;51.670;5.624;2023-05-29T02:33:16;102500.51;;;18.18;49.88
63194;BME280;49289;51.670;5.624;2023-05-29T02:35:04;102478.06;;;18.22;49.19
63194;BME280;49289;51.670;5.624;2023-05-29T02:36:52;102498.30;;;18.26;49.45
63194;BME280;49289;51.670;5.624;2023-05-29T02:38:40;102499.49;;;18.18;49.93
63194;BME280;49289;51.670;5.624;2023-05-29T02:40:28;102466.03;;;18.16;49.33
63194;BME280;49289;51.670;5.624;2023-05-29T02:42:17;102504.99;;;18.52;49.63
63194;BME280;49289;51.670;5.624;2023-05-29T02:44:04;102487.27;;;18.65;48.89
63194;BME280;49289;51.670;5.624;2023-05-29T02:45:51;102492.98;;;18.74;48.89
63194;BME280;49289;51.670;5.624;2023-05-29T02:47:38;102508.19;;;18.58;48.61
63194;BME280;49289;51.670;5.624;2023-05-29T02:49:25;102512.80;;;18.27;49.27
63194;BME280;49289;51.670;5.624;2023-05-29T02:51:13;102496.27;;;18.18;49.89
63194;BME280;49289;51.670;5.624;2023-05-29T02:53:01;102513.31;;;18.02;49.46
63194;BME280;49289;51.670;5.624;2023-05-29T02:54:49;102511.09;;;18.43;49.90
63194;BME280;49289;51.670;5.624;2023-05-29T02:56:36;102511.30;;;17.96;49.65
63194;BME280;49289;51.670;5.624;2023-05-29T02:58:23;102490.85;;;17.76;50.50
63194;BME280;49289;51.670;5.624;2023-05-29T03:00:11;102514.28;;;18.33;50.17
63194;BME280;49289;51.670;5.624;2023-05-29T03:01:59;102486.88;;;18.27;49.79
63194;BME280;49289;51.670;5.624;2023-05-29T03:03:47;102508.35;;;18.61;49.55
63194;BME280;49289;51.670;5.624;2023-05-29T03:05:35;102485.14;;;18.21;49.61
63194;BME280;49289;51.670;5.624;2023-05-29T03:07:23;102481.39;;;18.21;49.71
63194;BME280;49289;51.670;5.624;2023-05-29T03:09:11;102505.72;;;18.29;49.54
63194;BME280;49289;51.670;5.624;2023-05-29T03:10:58;102500.67;;;18.43;49.91
63194;BME280;49289;51.670;5.624;2023-05-29T03:12:44;102506.25;;;18.14;49.99
63194;BME280;49289;51.670;5.624;2023-05-29T03:14:32;102512.42;;;17.88;50.86
63194;BME280;49289;51.670;5.624;2023-05-29T03:16:20;102514.14;;;18.43;50.07
63194;BME280;49289;51.670;5.624;2023-05-29T03:18:08;102514.45;;;18.42;50.08
63194;BME280;49289;51.670;5.624;2023-05-29T03:19:56;102510.61;;;18.35;49.81
63194;BME280;49289;51.670;5.624;2023-05-29T03:21:45;102512.17;;;17.90;50.79
63194;BME280;49289;51.670;5.624;2023-05-29T03:23:33;102504.75;;;18.32;50.44
63194;BME280;49289;51.670;5.624;2023-05-29T03:25:21;102492.55;;;18.28;50.24
63194;BME280;49289;51.670;5.624;2023-05-29T03:27:08;102494.42;;;18.13;49.98
63194;BME280;49289;51.670;5.624;2023-05-29T03:28:55;102514.66;;;18.19;49.97
63194;BME280;49289;51.670;5.624;2023-05-29T03:30:42;102504.63;;;17.71;50.42
63194;BME280;49289;51.670;5.624;2023-05-29T03:32:29;102507.91;;;18.16;50.44
63194;BME280;49289;51.670;5.624;2023-05-29T03:34:16;102530.94;;;18.48;50.68
63194;BME280;49289;51.670;5.624;2023-05-29T03:36:03;102528.63;;;18.42;49.82
63194;BME280;49289;51.670;5.624;2023-05-29T03:37:50;102531.33;;;18.18;49.89
63194;BME280;49289;51.670;5.624;2023-05-29T03:39:37;102508.14;;;18.31;50.15
63194;BME280;49289;51.670;5.624;2023-05-29T03:41:24;102495.01;;;17.96;50.48
63194;BME280;49289;51.670;5.624;2023-05-29T03:43:12;102525.01;;;18.24;50.56
63194;BME280;49289;51.670;5.624;2023-05-29T03:45:00;102503.83;;;18.32;50.24
63194;BME280;49289;51.670;5.624;2023-05-29T03:46:48;102522.03;;;18.39;49.94
63194;BME280;49289;51.670;5.624;2023-05-29T03:48:36;102518.73;;;18.08;50.22
63194;BME280;49289;51.670;5.624;2023-05-29T03:50:24;102517.41;;;18.03;50.49
63194;BME280;49289;51.670;5.624;2023-05-29T03:52:12;102520.95;;;18.43;50.30
63194;BME280;49289;51.670;5.624;2023-05-29T03:54:00;102521.22;;;18.09;50.38
63194;BME280;49289;51.670;5.624;2023-05-29T03:55:47;102520.19;;;17.98;50.55
63194;BME280;49289;51.670;5.624;2023-05-29T03:57:36;102517.23;;;17.88;50.60
63194;BME280;49289;51.670;5.624;2023-05-29T03:59:24;102530.03;;;18.27;50.55
63194;BME280;49289;51.670;5.624;2023-05-29T04:01:12;102523.20;;;18.21;50.25
63194;BME280;49289;51.670;5.624;2023-05-29T04:03:00;102506.32;;;17.96;50.37
63194;BME280;49289;51.670;5.624;2023-05-29T04:04:47;102525.91;;;17.85;51.03
63194;BME280;49289;51.670;5.624;2023-05-29T04:06:34;102510.84;;;17.80;50.70
63194;BME280;49289;51.670;5.624;2023-05-29T04:08:21;102544.09;;;17.82;51.04
63194;BME280;49289;51.670;5.624;2023-05-29T04:10:08;102546.27;;;17.96;50.57
63194;BME280;49289;51.670;5.624;2023-05-29T04:11:57;102553.53;;;17.80;50.95
63194;BME280;49289;51.670;5.624;2023-05-29T04:13:44;102528.80;;;18.15;50.84
63194;BME280;49289;51.670;5.624;2023-05-29T04:15:31;102552.72;;;18.45;50.01
63194;BME280;49289;51.670;5.624;2023-05-29T04:17:18;102553.39;;;17.68;50.79
63194;BME280;49289;51.670;5.624;2023-05-29T04:19:05;102529.70;;;17.97;50.60
63194;BME280;49289;51.670;5.624;2023-05-29T04:20:52;102554.91;;;18.20;50.59
63194;BME280;49289;51.670;5.624;2023-05-29T04:22:39;102553.04;;;18.27;50.27
63194;BME280;49289;51.670;5.624;2023-05-29T04:24:26;102551.08;;;17.93;49.98
63194;BME280;49289;51.670;5.624;2023-05-29T04:26:14;102551.02;;;17.73;50.29
63194;BME280;49289;51.670;5.624;2023-05-29T04:28:02;102557.36;;;17.38;51.27
63194;BME280;49289;51.670;5.624;2023-05-29T04:29:50;102526.62;;;17.49;51.43
63194;BME280;49289;51.670;5.624;2023-05-29T04:31:38;102556.95;;;17.70;51.13
63194;BME280;49289;51.670;5.624;2023-05-29T04:33:26;102554.16;;;18.04;50.92
63194;BME280;49289;51.670;5.624;2023-05-29T04:35:14;102559.48;;;17.42;51.17
63194;BME280;49289;51.670;5.624;2023-05-29T04:37:02;102554.28;;;17.92;51.15
63194;BME280;49289;51.670;5.624;2023-05-29T04:38:49;102557.49;;;18.04;50.75
63194;BME280;49289;51.670;5.624;2023-05-29T04:40:37;102555.00;;;18.16;50.21
63194;BME280;49289;51.670;5.624;2023-05-29T04:42:25;102540.22;;;17.61;50.67
63194;BME280;49289;51.670;5.624;2023-05-29T04:44:12;102567.20;;;17.53;50.93
63194;BME280;49289;51.670;5.624;2023-05-29T04:46:00;102566.69;;;18.15;50.42
63194;BME280;49289;51.670;5.624;2023-05-29T04:47:48;102561.48;;;17.94;50.43
63194;BME280;49289;51.670;5.624;2023-05-29T04:49:36;102570.29;;;17.41;51.15
63194;BME280;49289;51.670;5.624;2023-05-29T04:51:24;102543.25;;;17.52;50.74
63194;BME280;49289;51.670;5.624;2023-05-29T04:53:12;102544.36;;;17.85;50.76
63194;BME280;49289;51.670;5.624;2023-05-29T04:55:00;102566.32;;;18.14;50.52
63194;BME280;49289;51.670;5.624;2023-05-29T04:56:47;102564.34;;;18.05;50.10
63194;BME280;49289;51.670;5.624;2023-05-29T04:58:34;102560.66;;;17.73;50.67
63194;BME280;49289;51.670;5.624;2023-05-29T05:00:22;102566.30;;;18.16;50.46
63194;BME280;49289;51.670;5.624;2023-05-29T05:02:09;102563.84;;;18.38;50.11
63194;BME280;49289;51.670;5.624;2023-05-29T05:03:56;102557.78;;;17.74;49.99
63194;BME280;49289;51.670;5.624;2023-05-29T05:05:43;102539.25;;;17.63;50.53
63194;BME280;49289;51.670;5.624;2023-05-29T05:07:30;102544.50;;;17.40;50.53
63194;BME280;49289;51.670;5.624;2023-05-29T05:09:17;102554.84;;;17.37;50.90
63194;BME280;49289;51.670;5.624;2023-05-29T05:11:04;102572.00;;;17.32;51.57
63194;BME280;49289;51.670;5.624;2023-05-29T05:12:51;102577.97;;;17.46;51.52
63194;BME280;49289;51.670;5.624;2023-05-29T05:14:38;102582.52;;;17.36;51.88
63194;BME280;49289;51.670;5.624;2023-05-29T05:16:25;102572.28;;;17.41;51.58
63194;BME280;49289;51.670;5.624;2023-05-29T05:18:12;102598.91;;;17.39;52.21
63194;BME280;49289;51.670;5.624;2023-05-29T05:19:59;102573.92;;;17.98;51.12
63194;BME280;49289;51.670;5.624;2023-05-29T05:21:46;102596.27;;;17.89;50.76
63194;BME280;49289;51.670;5.624;2023-05-29T05:23:33;102601.31;;;18.09;50.94
63194;BME280;49289;51.670;5.624;2023-05-29T05:25:20;102569.37;;;17.45;51.01
63194;BME280;49289;51.670;5.624;2023-05-29T05:27:07;102602.13;;;17.52;51.29
63194;BME280;49289;51.670;5.624;2023-05-29T05:28:54;102568.68;;;17.72;51.25
63194;BME280;49289;51.670;5.624;2023-05-29T05:30:42;102609.52;;;18.20;50.40
63194;BME280;49289;51.670;5.624;2023-05-29T05:32:30;102581.70;;;17.61;50.56
63194;BME280;49289;51.670;5.624;2023-05-29T05:34:18;102581.82;;;17.98;50.56
63194;BME280;49289;51.670;5.624;2023-05-29T05:36:06;102577.41;;;17.48;50.71
63194;BME280;49289;51.670;5.624;2023-05-29T05:37:53;102604.78;;;17.48;51.35
63194;BME280;49289;51.670;5.624;2023-05-29T05:39:40;102580.73;;;17.57;51.46
63194;BME280;49289;51.670;5.624;2023-05-29T05:41:27;102578.93;;;18.11;50.87
63194;BME280;49289;51.670;5.624;2023-05-29T05:43:14;102599.58;;;17.89;50.13
63194;BME280;49289;51.670;5.624;2023-05-29T05:45:01;102597.20;;;17.56;50.54
63194;BME280;49289;51.670;5.624;2023-05-29T05:46:48;102597.42;;;17.15;51.46
63194;BME280;49289;51.670;5.624;2023-05-29T05:48:35;102580.04;;;17.40;51.41
63194;BME280;49289;51.670;5.624;2023-05-29T05:50:22;102576.02;;;17.65;50.92
63194;BME280;49289;51.670;5.624;2023-05-29T05:52:11;102595.68;;;17.75;50.42
63194;BME280;49289;51.670;5.624;2023-05-29T05:53:58;102568.52;;;17.87;50.50
63194;BME280;49289;51.670;5.624;2023-05-29T05:55:45;102586.59;;;17.90;50.16
63194;BME280;49289;51.670;5.624;2023-05-29T05:57:32;102593.73;;;18.65;49.86
63194;BME280;49289;51.670;5.624;2023-05-29T05:59:19;102587.52;;;18.36;49.34
63194;BME280;49289;51.670;5.624;2023-05-29T06:01:06;102587.61;;;18.38;48.83
63194;BME280;49289;51.670;5.624;2023-05-29T06:02:54;102593.42;;;18.42;49.21
63194;BME280;49289;51.670;5.624;2023-05-29T06:04:41;102598.08;;;17.68;49.68
63194;BME280;49289;51.670;5.624;2023-05-29T06:06:29;102592.07;;;17.88;49.79
63194;BME280;49289;51.670;5.624;2023-05-29T06:08:17;102596.95;;;18.00;49.69
63194;BME280;49289;51.670;5.624;2023-05-29T06:10:04;102571.88;;;18.33;49.10
63194;BME280;49289;51.670;5.624;2023-05-29T06:11:51;102578.05;;;17.93;49.04
63194;BME280;49289;51.670;5.624;2023-05-29T06:13:38;102571.09;;;17.53;49.14
63194;BME280;49289;51.670;5.624;2023-05-29T06:15:25;102581.73;;;18.08;48.98
63194;BME280;49289;51.670;5.624;2023-05-29T06:17:12;102569.69;;;18.22;48.87
63194;BME280;49289;51.670;5.624;2023-05-29T06:18:59;102595.13;;;18.95;48.36
63194;BME280;49289;51.670;5.624;2023-05-29T06:20:46;102601.80;;;18.86;47.98
63194;BME280;49289;51.670;5.624;2023-05-29T06:22:33;102590.52;;;18.64;47.43
63194;BME280;49289;51.670;5.624;2023-05-29T06:24:20;102608.43;;;18.39;47.98
63194;BME280;49289;51.670;5.624;2023-05-29T06:26:07;102617.17;;;18.51;48.10
63194;BME280;49289;51.670;5.624;2023-05-29T06:27:54;102597.33;;;18.71;47.43
63194;BME280;49289;51.670;5.624;2023-05-29T06:29:41;102595.74;;;18.91;47.14
63194;BME280;49289;51.670;5.624;2023-05-29T06:31:28;102622.83;;;19.17;46.81
63194;BME280;49289;51.670;5.624;2023-05-29T06:33:15;102593.19;;;19.28;46.41
63194;BME280;49289;51.670;5.624;2023-05-29T06:35:02;102617.34;;;18.95;46.40
63194;BME280;49289;51.670;5.624;2023-05-29T06:36:49;102604.34;;;18.42;46.92
63194;BME280;49289;51.670;5.624;2023-05-29T06:38:36;102610.39;;;18.66;46.98
63194;BME280;49289;51.670;5.624;2023-05-29T06:40:24;102617.84;;;19.36;46.78
63194;BME280;49289;51.670;5.624;2023-05-29T06:42:11;102612.53;;;19.34;46.39
63194;BME280;49289;51.670;5.624;2023-05-29T06:43:58;102612.92;;;18.90;46.62
63194;BME280;49289;51.670;5.624;2023-05-29T06:45:47;102590.81;;;18.50;46.71
63194;BME280;49289;51.670;5.624;2023-05-29T06:47:35;102614.75;;;18.60;47.02
63194;BME280;49289;51.670;5.624;2023-05-29T06:49:22;102616.41;;;19.36;46.48
63194;BME280;49289;51.670;5.624;2023-05-29T06:51:11;102613.13;;;18.78;46.69
63194;BME280;49289;51.670;5.624;2023-05-29T06:52:59;102617.29;;;18.87;46.97
63194;BME280;49289;51.670;5.624;2023-05-29T06:54:46;102596.58;;;18.63;46.77
63194;BME280;49289;51.670;5.624;2023-05-29T06:56:34;102620.94;;;18.58;47.47
63194;BME280;49289;51.670;5.624;2023-05-29T06:58:22;102613.88;;;18.99;46.71
63194;BME280;49289;51.670;5.624;2023-05-29T07:00:12;102619.80;;;18.78;47.16
63194;BME280;49289;51.670;5.624;2023-05-29T07:01:59;102627.56;;;19.77;46.22
63194;BME280;49289;51.670;5.624;2023-05-29T07:03:46;102618.35;;;19.96;45.43
63194;BME280;49289;51.670;5.624;2023-05-29T07:05:33;102619.34;;;20.40;45.10
63194;BME280;49289;51.670;5.624;2023-05-29T07:07:20;102621.59;;;20.17;44.59
63194;BME280;49289;51.670;5.624;2023-05-29T07:09:07;102617.63;;;20.19;44.69
63194;BME280;49289;51.670;5.624;2023-05-29T07:10:54;102596.89;;;20.20;44.54
63194;BME280;49289;51.670;5.624;2023-05-29T07:12:41;102599.37;;;19.88;44.18
63194;BME280;49289;51.670;5.624;2023-05-29T07:14:28;102620.34;;;19.82;44.20
63194;BME280;49289;51.670;5.624;2023-05-29T07:16:15;102621.19;;;20.21;43.93
63194;BME280;49289;51.670;5.624;2023-05-29T07:18:02;102624.53;;;20.00;43.65
63194;BME280;49289;51.670;5.624;2023-05-29T07:19:49;102607.30;;;19.82;43.98
63194;BME280;49289;51.670;5.624;2023-05-29T07:21:36;102600.69;;;19.31;44.51
63194;BME280;49289;51.670;5.624;2023-05-29T07:23:23;102620.45;;;20.18;43.96
63194;BME280;49289;51.670;5.624;2023-05-29T07:25:11;102617.28;;;19.97;43.72
63194;BME280;49289;51.670;5.624;2023-05-29T07:26:58;102624.48;;;20.27;43.61
63194;BME280;49289;51.670;5.624;2023-05-29T07:28:46;102625.41;;;20.46;43.27
63194;BME280;49289;51.670;5.624;2023-05-29T07:30:34;102627.05;;;20.60;43.00
63194;BME280;49289;51.670;5.624;2023-05-29T07:32:22;102629.77;;;20.52;42.61
63194;BME280;49289;51.670;5.624;2023-05-29T07:34:10;102629.32;;;20.68;42.71
63194;BME280;49289;51.670;5.624;2023-05-29T07:35:59;102632.34;;;21.21;42.51
63194;BME280;49289;51.670;5.624;2023-05-29T07:37:47;102629.69;;;20.82;42.63
63194;BME280;49289;51.670;5.624;2023-05-29T07:39:35;102628.53;;;20.73;42.38
63194;BME280;49289;51.670;5.624;2023-05-29T07:41:22;102633.60;;;20.66;42.19
63194;BME280;49289;51.670;5.624;2023-05-29T07:43:10;102635.61;;;20.52;42.27
63194;BME280;49289;51.670;5.624;2023-05-29T07:44:57;102635.27;;;20.72;42.33
63194;BME280;49289;51.670;5.624;2023-05-29T07:46:44;102641.69;;;20.72;42.34
63194;BME280;49289;51.670;5.624;2023-05-29T07:48:31;102639.91;;;20.74;42.00
63194;BME280;49289;51.670;5.624;2023-05-29T07:50:19;102633.39;;;21.03;42.05
63194;BME280;49289;51.670;5.624;2023-05-29T07:52:06;102625.78;;;21.43;41.68
63194;BME280;49289;51.670;5.624;2023-05-29T07:53:53;102627.99;;;21.68;41.03
63194;BME280;49289;51.670;5.624;2023-05-29T07:55:40;102600.16;;;21.68;40.66
63194;BME280;49289;51.670;5.624;2023-05-29T07:57:27;102626.71;;;21.57;41.44
63194;BME280;49289;51.670;5.624;2023-05-29T07:59:14;102628.88;;;21.41;40.56
63194;BME280;49289;51.670;5.624;2023-05-29T08:01:01;102633.98;;;21.41;40.15
63194;BME280;49289;51.670;5.624;2023-05-29T08:02:48;102637.36;;;21.32;39.88
63194;BME280;49289;51.670;5.624;2023-05-29T08:04:35;102636.13;;;21.06;40.38
63194;BME280;49289;51.670;5.624;2023-05-29T08:06:22;102641.34;;;21.58;40.20
63194;BME280;49289;51.670;5.624;2023-05-29T08:08:09;102640.19;;;21.71;40.35
63194;BME280;49289;51.670;5.624;2023-05-29T08:09:56;102616.95;;;21.93;39.57
63194;BME280;49289;51.670;5.624;2023-05-29T08:11:43;102623.84;;;21.60;39.59
63194;BME280;49289;51.670;5.624;2023-05-29T08:13:30;102628.16;;;21.79;39.86
63194;BME280;49289;51.670;5.624;2023-05-29T08:15:18;102645.92;;;21.95;39.60
63194;BME280;49289;51.670;5.624;2023-05-29T08:17:06;102624.98;;;21.76;39.49
63194;BME280;49289;51.670;5.624;2023-05-29T08:18:54;102644.52;;;21.82;39.35
63194;BME280;49289;51.670;5.624;2023-05-29T08:20:42;102648.88;;;21.82;39.46
63194;BME280;49289;51.670;5.624;2023-05-29T08:22:33;102648.47;;;21.71;39.29
63194;BME280;49289;51.670;5.624;2023-05-29T08:24:20;102649.73;;;22.36;39.27
63194;BME280;49289;51.670;5.624;2023-05-29T08:26:56;102651.39;;;22.30;39.05
63194;BME280;49289;51.670;5.624;2023-05-29T08:28:44;102651.33;;;22.32;38.95
63194;BME280;49289;51.670;5.624;2023-05-29T08:30:32;102649.07;;;22.03;38.74
63194;BME280;49289;51.670;5.624;2023-05-29T08:32:20;102647.12;;;22.26;39.03
63194;BME280;49289;51.670;5.624;2023-05-29T08:34:07;102650.48;;;22.21;38.99
63194;BME280;49289;51.670;5.624;2023-05-29T08:35:56;102644.70;;;22.50;38.90
63194;BME280;49289;51.670;5.624;2023-05-29T08:37:44;102644.71;;;22.40;38.59
63194;BME280;49289;51.670;5.624;2023-05-29T08:39:31;102646.34;;;21.83;38.95
63194;BME280;49289;51.670;5.624;2023-05-29T08:41:20;102630.64;;;21.63;39.28
63194;BME280;49289;51.670;5.624;2023-05-29T08:43:10;102653.39;;;22.62;38.53
63194;BME280;49289;51.670;5.624;2023-05-29T08:44:56;102628.75;;;22.87;37.39
63194;BME280;49289;51.670;5.624;2023-05-29T08:46:42;102620.20;;;23.01;38.07
63194;BME280;49289;51.670;5.624;2023-05-29T08:48:30;102649.33;;;23.36;37.62
63194;BME280;49289;51.670;5.624;2023-05-29T08:50:17;102640.99;;;22.83;37.64
63194;BME280;49289;51.670;5.624;2023-05-29T08:52:06;102632.39;;;23.21;38.13
63194;BME280;49289;51.670;5.624;2023-05-29T08:53:53;102657.45;;;23.08;37.49
63194;BME280;49289;51.670;5.624;2023-05-29T08:55:41;102662.41;;;23.55;37.30
63194;BME280;49289;51.670;5.624;2023-05-29T08:57:29;102657.17;;;23.11;37.76
63194;BME280;49289;51.670;5.624;2023-05-29T08:59:17;102658.47;;;23.08;37.97
63194;BME280;49289;51.670;5.624;2023-05-29T09:01:05;102657.15;;;23.46;37.13
63194;BME280;49289;51.670;5.624;2023-05-29T09:02:53;102661.28;;;23.70;37.19
63194;BME280;49289;51.670;5.624;2023-05-29T09:04:41;102660.45;;;23.92;36.94
63194;BME280;49289;51.670;5.624;2023-05-29T09:06:29;102657.78;;;23.72;36.73
63194;BME280;49289;51.670;5.624;2023-05-29T09:08:17;102657.78;;;23.30;37.39
63194;BME280;49289;51.670;5.624;2023-05-29T09:10:05;102653.51;;;23.43;37.39
63194;BME280;49289;51.670;5.624;2023-05-29T09:11:53;102655.49;;;23.91;36.90
63194;BME280;49289;51.670;5.624;2023-05-29T09:13:41;102651.48;;;24.30;37.02
63194;BME280;49289;51.670;5.624;2023-05-29T09:15:29;102654.48;;;24.13;37.52
63194;BME280;49289;51.670;5.624;2023-05-29T09:17:16;102657.50;;;24.35;36.71
63194;BME280;49289;51.670;5.624;2023-05-29T09:19:11;102661.30;;;24.56;36.03
63194;BME280;49289;51.670;5.624;2023-05-29T09:20:58;102657.25;;;24.96;35.89
63194;BME280;49289;51.670;5.624;2023-05-29T09:22:48;102658.16;;;24.80;35.74
63194;BME280;49289;51.670;5.624;2023-05-29T09:24:36;102630.08;;;23.97;35.80